Time;durP1;ratioP1;P1;durP2;ratioP2;P2;SDS_P1;SDS_P2;PMS_P1;PMS_P2;Temp;Humidity;BMP_temperature;BMP_pressure;BME280_temperature;BME280_humidity;BME280_pressure;Samples;Min_cycle;Max_cycle;Signal;HPM_P1;HPM_P2
2022/01/23 00:00:19;;;;;;;30.05;15.48;;;6.30;99.90;;;;;;5082792;28;20024;-80
2022/01/23 00:02:49;;;;;;;32.30;15.85;;;5.80;99.90;;;;;;5080019;28;20024;-80
2022/01/23 00:05:16;;;;;;;29.55;15.88;;;5.80;99.90;;;;;;5098531;28;20044;-80
2022/01/23 00:07:43;;;;;;;28.65;15.02;;;5.80;99.90;;;;;;5099022;28;20120;-85
2022/01/23 00:10:10;;;;;;;27.25;15.32;;;7.10;99.90;;;;;;5081868;28;20235;-81
2022/01/23 00:12:46;;;;;;;27.95;15.45;;;7.40;99.90;;;;;;5082415;28;20555;-80
2022/01/23 00:17:57;;;;;;;35.05;16.42;;;5.90;99.90;;;;;;5100687;28;20077;-79
2022/01/23 00:20:23;;;;;;;31.15;15.60;;;7.20;99.90;;;;;;5078941;28;20032;-86
2022/01/23 00:23:02;;;;;;;31.10;16.25;;;5.90;99.90;;;;;;5096955;28;20514;-82
2022/01/23 00:30:59;;;;;;;31.70;15.38;;;7.00;99.90;;;;;;5097444;28;20035;-81
2022/01/23 00:33:25;;;;;;;34.45;15.82;;;5.80;99.90;;;;;;5082787;28;20028;-87
2022/01/23 00:35:51;;;;;;;29.13;14.52;;;6.70;99.90;;;;;;5097830;28;20056;-82
2022/01/23 00:38:18;;;;;;;32.67;16.38;;;5.80;99.90;;;;;;5071039;28;20036;-85
2022/01/23 00:40:46;;;;;;;32.80;15.50;;;5.80;99.90;;;;;;5083209;28;20036;-84
2022/01/23 00:43:30;;;;;;;28.23;14.88;;;7.30;99.90;;;;;;5079877;28;20501;-81
2022/01/23 00:48:52;;;;;;;31.63;15.55;;;6.70;99.90;;;;;;5097899;28;20046;-79
2022/01/23 00:51:18;;;;;;;32.92;16.55;;;6.50;99.90;;;;;;5077502;28;20035;-85
2022/01/23 00:53:43;;;;;;;27.08;15.10;;;6.70;99.90;;;;;;5079607;28;20024;-85
2022/01/23 00:56:09;;;;;;;32.10;16.00;;;5.80;99.90;;;;;;5079194;28;20111;-79
2022/01/23 00:58:35;;;;;;;27.38;15.88;;;5.30;99.90;;;;;;5079090;28;20032;-80
2022/01/23 01:01:01;;;;;;;26.70;14.10;;;5.70;99.90;;;;;;5082710;28;20098;-78
2022/01/23 01:03:26;;;;;;;31.13;15.27;;;7.30;99.90;;;;;;5086424;28;20020;-82
2022/01/23 01:05:52;;;;;;;29.45;15.20;;;5.80;99.90;;;;;;5096763;28;20016;-82
2022/01/23 01:08:18;;;;;;;30.92;15.90;;;6.00;99.90;;;;;;5091075;28;20028;-82
2022/01/23 01:11:53;;;;;;;27.45;15.32;;;7.30;99.90;;;;;;5077420;28;20016;-85
2022/01/23 01:13:51;;;;;;;29.38;15.80;;;6.40;99.90;;;;;;5089286;28;20028;-83
2022/01/23 01:35:24;;;;;;;29.88;16.48;;;7.10;99.90;;;;;;5093541;28;20519;-85
2022/01/23 01:37:50;;;;;;;34.72;16.42;;;7.30;99.90;;;;;;5078430;28;20029;-83
2022/01/23 01:40:16;;;;;;;29.90;15.13;;;5.80;99.90;;;;;;5075285;28;20081;-83
2022/01/23 01:42:43;;;;;;;32.67;16.23;;;5.80;99.90;;;;;;5082349;28;20074;-83
2022/01/23 01:45:09;;;;;;;32.25;15.45;;;6.70;99.90;;;;;;5072900;28;20024;-84
2022/01/23 01:47:47;;;;;;;34.70;16.60;;;5.80;99.90;;;;;;5082334;28;20036;-82
2022/01/23 01:50:13;;;;;;;32.10;16.58;;;7.00;99.90;;;;;;5080863;28;20522;-80
2022/01/23 01:52:42;;;;;;;32.17;15.18;;;5.80;99.90;;;;;;5074583;28;20401;-79
2022/01/23 01:55:11;;;;;;;29.35;15.65;;;5.90;99.90;;;;;;5074213;28;20036;-82
2022/01/23 01:57:43;;;;;;;32.38;16.00;;;5.90;99.90;;;;;;5079674;28;20370;-81
2022/01/23 02:00:26;;;;;;;32.13;16.33;;;5.80;99.90;;;;;;5099188;28;20035;-81
2022/01/23 02:08:26;;;;;;;29.05;15.15;;;5.60;99.90;;;;;;5095440;28;20523;-84
2022/01/23 02:10:59;;;;;;;29.92;14.85;;;6.90;99.90;;;;;;5089182;28;20027;-81
2022/01/23 02:13:35;;;;;;;29.90;15.93;;;6.20;99.90;;;;;;5097655;28;20020;-80
2022/01/23 02:16:30;;;;;;;26.90;14.15;;;6.80;99.90;;;;;;5077495;28;20016;-82
2022/01/23 02:24:46;;;;;;;27.70;14.88;;;7.10;99.90;;;;;;5102925;28;20035;-81
2022/01/23 02:52:07;;;;;;;31.13;15.60;;;6.80;99.90;;;;;;5101562;28;20548;-82
2022/01/23 02:54:55;;;;;;;35.58;15.52;;;6.80;99.90;;;;;;5080555;28;20221;-81
2022/01/23 02:57:37;;;;;;;33.00;16.55;;;6.60;99.90;;;;;;5078073;28;20020;-85
2022/01/23 03:00:12;;;;;;;31.02;16.25;;;6.50;99.90;;;;;;5075972;28;20514;-84
2022/01/23 03:02:43;;;;;;;33.88;15.55;;;5.70;99.90;;;;;;5095532;28;20028;-80
2022/01/23 03:05:12;;;;;;;31.13;16.42;;;5.60;99.90;;;;;;5097977;28;20024;-81
2022/01/23 03:07:59;;;;;;;33.85;16.92;;;5.80;99.90;;;;;;5087629;28;20024;-81
2022/01/23 03:10:31;;;;;;;32.65;16.77;;;7.10;99.90;;;;;;5082442;28;20031;-80
2022/01/23 03:26:26;;;;;;;30.67;15.43;;;7.00;99.90;;;;;;5090697;28;20090;-85
2022/01/23 03:31:43;;;;;;;30.52;15.40;;;5.60;99.90;;;;;;5081387;28;20078;-82
2022/01/23 03:34:09;;;;;;;31.42;16.10;;;5.60;99.90;;;;;;5081460;28;20035;-81
2022/01/23 03:36:36;;;;;;;31.13;16.20;;;5.60;99.90;;;;;;5077771;28;20096;-81
2022/01/23 03:39:07;;;;;;;32.13;15.15;;;6.90;99.90;;;;;;5093392;28;20036;-86
2022/01/23 03:41:36;;;;;;;31.38;15.23;;;5.60;99.90;;;;;;5080984;28;20032;-84
2022/01/23 03:44:04;;;;;;;30.13;15.73;;;7.20;99.90;;;;;;5081057;28;20056;-81
2022/01/23 03:46:46;;;;;;;29.17;16.00;;;6.50;99.90;;;;;;5097262;28;20032;-79
2022/01/23 03:49:32;;;;;;;26.08;15.10;;;7.30;99.90;;;;;;5078819;28;20035;-81
2022/01/23 03:51:59;;;;;;;27.92;14.98;;;7.30;99.90;;;;;;5097319;28;20024;-81
2022/01/23 03:54:26;;;;;;;43.28;18.73;;;4.60;99.90;;;;;;5079812;28;20459;-81
2022/01/23 03:56:53;;;;;;;31.13;15.98;;;5.60;99.90;;;;;;5079973;28;20020;-82
2022/01/23 03:59:18;;;;;;;31.55;14.98;;;7.10;99.90;;;;;;5082727;28;20110;-82
2022/01/23 04:01:44;;;;;;;28.65;15.15;;;6.50;99.90;;;;;;5078101;28;20191;-81
2022/01/23 04:04:25;;;;;;;32.63;16.35;;;7.20;99.90;;;;;;5062520;28;20432;-80
2022/01/23 04:06:51;;;;;;;30.05;14.65;;;6.70;99.90;;;;;;5080887;28;20028;-81
2022/01/23 04:09:16;;;;;;;30.27;15.63;;;6.60;99.90;;;;;;5079489;28;20515;-82
2022/01/23 04:11:43;;;;;;;31.83;15.75;;;6.40;99.90;;;;;;5080545;28;20024;-82
2022/01/23 04:14:11;;;;;;;34.80;15.75;;;4.50;99.90;;;;;;5095894;28;20477;-81
2022/01/23 04:33:41;;;;;;;26.55;14.95;;;6.80;99.90;;;;;;5096403;28;20028;-81
2022/01/23 05:00:47;;;;;;;24.55;14.10;;;6.90;99.90;;;;;;5101251;28;20061;-82
2022/01/23 05:03:57;;;;;;;26.63;13.85;;;5.60;99.90;;;;;;5079380;28;20028;-82
2022/01/23 05:06:04;;;;;;;25.20;14.05;;;7.00;99.90;;;;;;5095273;28;20032;-80
2022/01/23 05:08:34;;;;;;;27.63;14.20;;;6.40;99.90;;;;;;5078829;28;20501;-82
2022/01/23 05:11:06;;;;;;;26.42;14.60;;;5.60;99.90;;;;;;5079795;28;20024;-80
2022/01/23 05:13:32;;;;;;;24.45;13.55;;;6.70;99.90;;;;;;5092131;28;20054;-83
2022/01/23 05:15:58;;;;;;;26.67;13.93;;;5.90;99.90;;;;;;5076546;28;20461;-80
2022/01/23 05:18:24;;;;;;;26.98;13.80;;;5.70;99.90;;;;;;5078289;28;20023;-80
2022/01/23 05:20:59;;;;;;;28.15;14.70;;;7.30;99.90;;;;;;5083278;28;20069;-81
2022/01/23 05:23:25;;;;;;;28.67;14.63;;;5.70;99.90;;;;;;5075083;28;20493;-81
2022/01/23 05:25:51;;;;;;;26.67;13.73;;;7.30;99.90;;;;;;5080521;28;20031;-82
2022/01/23 05:28:16;;;;;;;27.17;14.68;;;6.60;99.90;;;;;;5090586;28;20027;-78
2022/01/23 05:30:43;;;;;;;25.58;14.32;;;7.00;99.90;;;;;;5078935;28;20031;-78
2022/01/23 05:33:09;;;;;;;29.15;14.93;;;6.90;99.90;;;;;;5077067;28;20031;-81
2022/01/23 05:35:35;;;;;;;24.17;13.93;;;7.20;99.90;;;;;;5079277;28;20023;-83
2022/01/23 05:38:01;;;;;;;29.88;14.10;;;7.30;99.90;;;;;;5059417;28;20020;-80
2022/01/23 05:40:29;;;;;;;29.83;14.85;;;5.70;99.90;;;;;;5078235;28;20405;-81
2022/01/23 05:42:55;;;;;;;26.25;14.18;;;6.70;99.90;;;;;;5082073;28;20028;-80
2022/01/23 05:45:21;;;;;;;25.83;13.93;;;5.60;99.90;;;;;;5081551;28;20028;-80
2022/01/23 05:47:47;;;;;;;26.33;14.73;;;6.10;99.90;;;;;;5071732;28;20453;-78
2022/01/23 05:50:12;;;;;;;27.05;14.80;;;5.70;99.90;;;;;;5075207;28;20032;-80
2022/01/23 05:52:38;;;;;;;27.70;14.27;;;5.70;99.90;;;;;;5095206;28;20081;-81
2022/01/23 05:55:05;;;;;;;28.88;15.20;;;7.10;99.90;;;;;;5101701;28;20508;-85
2022/01/23 05:57:31;;;;;;;29.45;14.73;;;5.70;99.90;;;;;;5084740;28;20024;-81
2022/01/23 05:59:56;;;;;;;24.67;14.15;;;6.60;99.90;;;;;;5093867;28;20028;-83
2022/01/23 06:02:22;;;;;;;27.05;14.77;;;6.30;99.90;;;;;;5068605;28;20032;-80
2022/01/23 06:04:48;;;;;;;28.50;13.90;;;5.70;99.90;;;;;;5090263;28;20397;-90
2022/01/23 06:07:13;;;;;;;26.30;13.75;;;5.60;99.90;;;;;;5073421;28;20496;-83
2022/01/23 06:09:40;;;;;;;24.50;13.70;;;5.20;99.90;;;;;;5075935;28;20028;-83
2022/01/23 06:12:07;;;;;;;23.23;13.60;;;7.00;99.90;;;;;;5085267;28;20041;-80
2022/01/23 06:14:33;;;;;;;25.52;13.75;;;4.30;99.90;;;;;;5090728;28;20107;-85
2022/01/23 06:16:58;;;;;;;26.60;14.57;;;5.60;99.90;;;;;;5077229;28;20088;-82
2022/01/23 06:19:24;;;;;;;25.00;12.82;;;5.20;99.90;;;;;;5072780;28;20073;-81
2022/01/23 06:21:50;;;;;;;26.75;14.15;;;6.10;99.90;;;;;;5073654;28;20250;-83
2022/01/23 06:24:27;;;;;;;28.20;14.50;;;7.10;99.90;;;;;;5070886;28;20111;-83
2022/01/23 06:26:56;;;;;;;28.58;14.48;;;6.50;99.90;;;;;;5068731;28;20025;-83
2022/01/23 06:29:23;;;;;;;23.60;13.88;;;5.50;99.90;;;;;;5080266;28;20093;-82
2022/01/23 06:31:53;;;;;;;23.60;13.40;;;5.50;99.90;;;;;;5093995;28;20024;-86
2022/01/23 06:34:19;;;;;;;25.55;13.68;;;6.10;99.90;;;;;;5089717;28;20099;-84
2022/01/23 06:36:45;;;;;;;24.48;13.27;;;5.80;99.90;;;;;;5073396;28;20055;-83
2022/01/23 06:39:13;;;;;;;24.95;13.38;;;6.70;99.90;;;;;;5075046;28;20482;-80
2022/01/23 06:41:40;;;;;;;25.00;13.20;;;7.00;99.90;;;;;;5073183;28;20036;-80
2022/01/23 06:44:06;;;;;;;24.80;13.70;;;7.10;99.90;;;;;;5078866;28;20036;-83
2022/01/23 06:46:33;;;;;;;22.40;12.45;;;5.50;99.90;;;;;;5078855;28;20039;-81
2022/01/23 06:48:59;;;;;;;23.40;13.10;;;6.90;99.90;;;;;;5076152;28;20990;-82
2022/01/23 06:51:25;;;;;;;25.17;13.65;;;6.20;99.90;;;;;;5089436;28;20056;-81
2022/01/23 06:53:52;;;;;;;24.00;13.07;;;6.40;99.90;;;;;;5075162;28;20054;-84
2022/01/23 06:56:18;;;;;;;27.15;13.32;;;6.70;99.90;;;;;;5069508;28;20032;-82
2022/01/23 06:58:43;;;;;;;24.05;14.07;;;6.80;99.90;;;;;;5069187;28;20039;-80
2022/01/23 07:01:10;;;;;;;23.42;12.57;;;5.50;99.90;;;;;;5088329;28;20044;-81
2022/01/23 07:03:35;;;;;;;24.25;12.65;;;5.60;99.90;;;;;;5077681;28;20409;-83
2022/01/23 07:06:01;;;;;;;23.92;13.88;;;5.50;99.90;;;;;;5092201;28;20024;-82
2022/01/23 07:08:27;;;;;;;27.17;13.07;;;5.60;99.90;;;;;;5097724;28;20506;-80
2022/01/23 07:10:53;;;;;;;24.35;13.43;;;6.00;99.90;;;;;;5073696;28;20028;-83
2022/01/23 07:13:18;;;;;;;24.67;12.93;;;7.10;99.90;;;;;;5060501;28;20028;-80
2022/01/23 07:15:44;;;;;;;24.75;13.07;;;7.00;99.90;;;;;;5072638;28;20039;-80
2022/01/23 07:18:10;;;;;;;27.52;14.07;;;5.60;99.90;;;;;;5073973;28;20024;-82
2022/01/23 07:20:36;;;;;;;25.98;13.07;;;6.70;99.90;;;;;;5074895;28;20033;-80
2022/01/23 07:23:02;;;;;;;26.98;14.52;;;7.10;99.90;;;;;;5079587;28;20032;-85
2022/01/23 07:25:28;;;;;;;26.85;14.43;;;6.80;99.90;;;;;;5076465;28;20036;-80
2022/01/23 07:27:57;;;;;;;26.45;13.50;;;5.70;99.90;;;;;;5074188;28;20123;-81
2022/01/23 07:32:48;;;;;;;26.40;14.35;;;6.90;99.90;;;;;;5094017;28;20584;-82
2022/01/23 07:35:14;;;;;;;27.02;14.85;;;5.70;99.90;;;;;;5091877;28;20445;-81
2022/01/23 07:37:40;;;;;;;22.05;12.60;;;6.90;99.90;;;;;;5093786;28;20025;-80
2022/01/23 07:40:06;;;;;;;23.00;12.90;;;7.20;99.90;;;;;;5078116;28;20035;-81
2022/01/23 07:42:32;;;;;;;23.83;12.43;;;5.70;99.90;;;;;;5070640;28;20131;-81
2022/01/23 07:44:57;;;;;;;25.13;13.90;;;5.70;99.90;;;;;;5095516;28;20056;-84
2022/01/23 07:47:23;;;;;;;26.88;13.27;;;5.90;99.90;;;;;;5077109;28;20028;-83
2022/01/23 07:49:50;;;;;;;24.02;13.32;;;6.50;99.90;;;;;;5072551;28;20040;-83
2022/01/23 07:52:19;;;;;;;23.77;13.40;;;6.30;99.90;;;;;;5069950;28;20404;-80
2022/01/23 07:54:45;;;;;;;22.25;12.82;;;6.10;99.90;;;;;;5089869;28;20035;-85
2022/01/23 07:57:11;;;;;;;23.42;12.52;;;6.50;99.90;;;;;;5075435;28;20168;-86
2022/01/23 07:59:37;;;;;;;23.38;14.02;;;7.30;99.90;;;;;;5095429;28;20454;-80
2022/01/23 08:02:03;;;;;;;23.15;12.25;;;6.70;99.90;;;;;;5076349;28;20037;-83
2022/01/23 08:04:29;;;;;;;22.90;12.48;;;5.80;99.90;;;;;;5095208;28;20036;-81
2022/01/23 08:07:40;;;;;;;24.83;13.93;;;6.80;99.90;;;;;;5078066;28;20043;-82
2022/01/23 08:09:41;;;;;;;23.05;13.50;;;7.10;99.90;;;;;;5070525;28;20489;-83
2022/01/23 08:12:07;;;;;;;22.00;12.63;;;7.10;99.90;;;;;;5093821;28;20024;-83
2022/01/23 08:14:33;;;;;;;22.52;12.68;;;5.80;99.90;;;;;;5069235;28;21970;-82
2022/01/23 08:16:59;;;;;;;22.83;12.60;;;4.60;99.90;;;;;;5099222;28;20024;-82
2022/01/23 08:19:24;;;;;;;22.77;12.45;;;7.30;99.90;;;;;;5080289;28;20538;-84
2022/01/23 08:21:50;;;;;;;23.42;12.40;;;7.30;99.90;;;;;;5080163;28;20046;-80
2022/01/23 08:24:15;;;;;;;21.80;12.70;;;5.90;99.90;;;;;;5096937;28;20027;-80
2022/01/23 08:26:41;;;;;;;22.15;11.85;;;5.90;99.90;;;;;;5085404;28;20025;-82
2022/01/23 08:29:07;;;;;;;25.05;12.30;;;5.80;99.90;;;;;;5074373;28;20032;-85
2022/01/23 08:31:33;;;;;;;21.95;11.70;;;5.90;99.90;;;;;;5081951;28;20026;-80
2022/01/23 08:33:59;;;;;;;21.38;11.93;;;6.60;99.90;;;;;;5082245;28;20016;-81
2022/01/23 08:36:26;;;;;;;21.38;11.43;;;5.90;99.90;;;;;;5102621;28;20024;-81
2022/01/23 08:38:51;;;;;;;23.95;12.40;;;6.00;99.90;;;;;;5080406;28;20032;-82
2022/01/23 08:44:01;;;;;;;21.13;12.20;;;7.10;99.90;;;;;;5099074;28;20425;-82
2022/01/23 08:46:27;;;;;;;24.08;12.50;;;7.30;99.90;;;;;;5092608;28;20047;-81
2022/01/23 08:48:52;;;;;;;22.80;11.63;;;6.00;99.90;;;;;;5079361;28;20035;-80
2022/01/23 08:51:18;;;;;;;20.15;12.60;;;6.00;99.90;;;;;;5062693;28;20020;-81
2022/01/23 08:53:44;;;;;;;23.05;12.23;;;6.00;99.90;;;;;;5074636;28;20492;-84
2022/01/23 08:56:09;;;;;;;22.48;11.77;;;6.00;99.90;;;;;;5074292;28;20032;-80
2022/01/23 08:58:35;;;;;;;21.65;11.40;;;6.90;99.90;;;;;;5076834;28;20409;-79
2022/01/23 09:01:01;;;;;;;19.95;11.07;;;6.10;99.90;;;;;;5095240;28;20020;-81
2022/01/23 09:03:26;;;;;;;21.75;11.98;;;6.10;99.90;;;;;;5083116;28;20495;-83
2022/01/23 09:05:52;;;;;;;20.50;10.80;;;6.10;99.90;;;;;;5080014;28;20019;-85
2022/01/23 09:08:19;;;;;;;22.77;11.75;;;6.20;99.90;;;;;;5077443;28;20442;-82
2022/01/23 09:10:53;;;;;;;21.80;11.57;;;6.30;99.90;;;;;;5092432;28;21304;-79
2022/01/23 09:13:33;;;;;;;19.50;11.02;;;6.30;99.90;;;;;;5091926;28;20028;-82
2022/01/23 09:15:59;;;;;;;19.80;11.02;;;6.30;99.90;;;;;;5090163;28;20032;-82
2022/01/23 09:18:25;;;;;;;24.10;12.65;;;7.70;99.90;;;;;;5086623;28;20028;-84
2022/01/23 09:20:51;;;;;;;22.02;11.07;;;7.90;99.90;;;;;;5077190;28;20057;-81
2022/01/23 09:23:16;;;;;;;20.70;10.60;;;7.50;99.90;;;;;;5093102;28;20341;-87
2022/01/23 09:25:42;;;;;;;21.27;11.27;;;7.30;99.90;;;;;;5086394;28;20790;-82
2022/01/23 09:28:13;;;;;;;18.83;10.38;;;7.80;99.90;;;;;;5082151;28;20093;-83
2022/01/23 09:30:40;;;;;;;17.80;10.13;;;6.20;99.90;;;;;;5070397;28;20031;-83
2022/01/23 09:33:06;;;;;;;17.83;10.43;;;7.30;99.90;;;;;;5068153;28;20024;-83
2022/01/23 09:35:31;;;;;;;18.58;10.20;;;7.70;99.90;;;;;;5070713;28;20028;-83
2022/01/23 09:37:58;;;;;;;19.45;10.73;;;7.40;99.90;;;;;;5078876;28;20028;-82
2022/01/23 09:40:23;;;;;;;19.85;10.65;;;7.20;99.90;;;;;;5073707;28;20115;-82
2022/01/23 09:42:54;;;;;;;21.60;11.25;;;6.40;99.90;;;;;;5085481;28;20173;-81
2022/01/23 09:45:20;;;;;;;21.65;11.25;;;6.40;99.90;;;;;;5072753;28;20548;-82
2022/01/23 09:47:46;;;;;;;19.30;11.27;;;6.70;99.90;;;;;;5078936;28;20061;-82
2022/01/23 09:50:14;;;;;;;21.83;11.77;;;7.90;99.90;;;;;;5072636;28;20057;-82
2022/01/23 09:52:41;;;;;;;21.33;11.98;;;6.30;99.90;;;;;;5078629;28;20031;-81
2022/01/23 09:55:11;;;;;;;23.38;12.32;;;4.90;99.90;;;;;;5091658;28;20695;-86
2022/01/23 09:57:41;;;;;;;21.50;11.70;;;6.30;99.90;;;;;;5102565;28;20024;-84
2022/01/23 10:00:12;;;;;;;18.40;10.98;;;7.60;99.90;;;;;;5094374;28;20028;-83
2022/01/23 10:02:37;;;;;;;20.30;11.02;;;6.40;99.90;;;;;;5079407;28;20024;-83
2022/01/23 10:05:05;;;;;;;18.38;10.82;;;7.80;99.90;;;;;;5078478;28;20036;-87
2022/01/23 10:07:36;;;;;;;19.58;11.48;;;6.50;99.90;;;;;;5084832;28;20016;-85
2022/01/23 10:10:11;;;;;;;21.88;11.10;;;7.30;99.90;;;;;;5071465;28;20046;-86
2022/01/23 10:12:42;;;;;;;20.08;11.20;;;6.60;99.90;;;;;;5069194;28;20028;-85
2022/01/23 10:15:10;;;;;;;22.35;11.48;;;8.00;99.90;;;;;;5087522;28;20027;-81
2022/01/23 10:17:37;;;;;;;19.63;10.57;;;6.60;99.90;;;;;;5083899;28;20016;-82
2022/01/23 10:20:05;;;;;;;18.40;10.32;;;7.60;99.90;;;;;;5068348;28;20054;-82
2022/01/23 10:22:33;;;;;;;20.10;11.65;;;6.50;99.90;;;;;;5064934;28;20032;-81
2022/01/23 10:25:13;;;;;;;19.75;11.38;;;6.60;99.90;;;;;;5064031;28;20024;-82
2022/01/23 10:28:06;;;;;;;17.25;10.70;;;6.70;99.90;;;;;;5069785;28;20020;-84
2022/01/23 10:30:45;;;;;;;16.40;9.60;;;6.70;99.90;;;;;;5049021;28;20040;-81
2022/01/23 10:33:37;;;;;;;16.40;9.88;;;6.80;99.90;;;;;;5084835;28;20463;-80
2022/01/23 10:36:09;;;;;;;16.73;9.18;;;6.80;99.90;;;;;;5062482;28;20024;-81
2022/01/23 10:38:54;;;;;;;15.77;8.95;;;6.90;99.90;;;;;;5085465;28;20028;-84
2022/01/23 10:49:57;;;;;;;16.08;8.60;;;7.20;99.90;;;;;;5085168;28;20031;-83
2022/01/23 10:52:40;;;;;;;12.40;7.03;;;7.30;99.90;;;;;;5066310;28;20021;-87
2022/01/23 10:55:29;;;;;;;14.98;7.55;;;7.30;99.90;;;;;;5074296;28;20031;-85
2022/01/23 10:58:00;;;;;;;11.77;7.25;;;7.30;99.90;;;;;;5087711;28;20033;-83
2022/01/23 11:00:32;;;;;;;14.77;7.28;;;7.30;99.90;;;;;;5079175;28;20080;-82
2022/01/23 11:03:02;;;;;;;16.60;8.73;;;7.30;99.90;;;;;;5074057;28;20028;-83
2022/01/23 11:05:36;;;;;;;13.00;7.68;;;9.10;99.90;;;;;;5076572;28;20099;-84
2022/01/23 11:08:17;;;;;;;13.40;7.78;;;8.40;99.90;;;;;;5078330;28;20024;-85
2022/01/23 11:10:52;;;;;;;14.43;8.45;;;7.50;99.90;;;;;;5075424;28;20021;-81
2022/01/23 11:19:24;;;;;;;15.95;8.07;;;8.50;99.90;;;;;;5091280;28;20046;-86
2022/01/23 11:21:53;;;;;;;13.73;8.52;;;7.50;99.90;;;;;;5097868;28;20032;-81
2022/01/23 11:24:22;;;;;;;13.50;7.95;;;8.90;99.90;;;;;;5081225;28;20066;-87
2022/01/23 11:26:58;;;;;;;13.90;8.27;;;7.60;99.90;;;;;;5078528;28;20054;-81
2022/01/23 11:29:27;;;;;;;12.85;7.57;;;7.70;99.90;;;;;;5080541;28;20028;-84
2022/01/23 11:31:52;;;;;;;13.52;8.05;;;7.70;99.90;;;;;;5092518;28;20024;-83
2022/01/23 11:34:21;;;;;;;14.90;8.20;;;7.80;99.90;;;;;;5087808;28;20362;-83
2022/01/23 11:36:47;;;;;;;13.00;8.25;;;8.70;99.90;;;;;;5076167;28;20076;-83
2022/01/23 11:39:30;;;;;;;14.90;8.25;;;6.30;99.90;;;;;;5086702;28;20115;-84
2022/01/23 11:56:28;;;;;;;14.20;7.53;;;8.90;99.90;;;;;;5097748;28;20113;-83
2022/01/23 11:59:23;;;;;;;13.35;6.75;;;7.70;99.90;;;;;;5095946;28;20027;-83
2022/01/23 12:02:13;;;;;;;17.48;8.65;;;9.70;99.90;;;;;;5103436;23;20020;-82
2022/01/23 12:05:00;;;;;;;12.90;6.57;;;7.80;99.90;;;;;;5024431;28;20101;-82
2022/01/23 12:07:30;;;;;;;13.43;7.38;;;7.60;99.90;;;;;;5027666;28;20026;-84
2022/01/23 12:10:22;;;;;;;14.73;7.50;;;8.70;99.90;;;;;;5030234;28;20132;-84
2022/01/23 12:12:51;;;;;;;13.27;7.55;;;7.80;99.90;;;;;;5029946;28;20026;-82
2022/01/23 12:18:15;;;;;;;11.00;6.40;;;7.90;99.90;;;;;;5028131;28;20083;-82
2022/01/23 12:20:43;;;;;;;11.18;6.53;;;7.90;99.90;;;;;;5030200;28;20064;-83
2022/01/23 12:23:10;;;;;;;13.57;7.03;;;8.00;99.90;;;;;;5026304;28;20025;-81
2022/01/23 12:25:52;;;;;;;13.95;7.53;;;7.90;99.90;;;;;;5026442;28;20057;-84
2022/01/23 12:28:29;;;;;;;10.80;6.50;;;7.90;99.90;;;;;;5027315;28;20532;-85
2022/01/23 12:31:00;;;;;;;10.68;6.35;;;7.80;99.90;;;;;;5028874;28;20026;-84
2022/01/23 12:33:31;;;;;;;11.73;7.65;;;7.70;99.90;;;;;;5024759;28;20029;-84
2022/01/23 12:36:02;;;;;;;14.07;7.20;;;7.70;99.90;;;;;;5029961;28;20093;-83
2022/01/23 12:38:34;;;;;;;12.88;6.65;;;7.80;99.90;;;;;;5031610;28;20033;-85
2022/01/23 12:41:25;;;;;;;12.43;6.38;;;7.60;99.90;;;;;;5035875;28;20086;-85
2022/01/23 12:44:00;;;;;;;12.32;7.15;;;7.70;99.90;;;;;;5056455;28;20060;-85
2022/01/23 12:46:39;;;;;;;12.05;6.60;;;7.60;99.90;;;;;;5035239;28;20436;-83
2022/01/23 12:49:16;;;;;;;14.40;6.97;;;7.60;99.90;;;;;;5033254;28;20040;-83
2022/01/23 12:51:42;;;;;;;10.65;6.65;;;7.50;99.90;;;;;;5049157;28;20021;-84
2022/01/23 12:54:13;;;;;;;14.55;8.20;;;7.50;99.90;;;;;;5033067;28;20033;-82
2022/01/23 12:56:43;;;;;;;11.55;6.55;;;7.60;99.90;;;;;;5052800;28;20079;-85
2022/01/23 12:59:12;;;;;;;11.30;6.87;;;7.90;99.90;;;;;;5030965;28;20026;-86
2022/01/23 13:01:44;;;;;;;11.38;6.80;;;7.70;99.90;;;;;;5049070;28;20498;-84
2022/01/23 13:04:10;;;;;;;12.45;7.20;;;7.60;99.90;;;;;;5034157;28;20087;-85
2022/01/23 13:06:48;;;;;;;12.70;7.22;;;7.50;99.90;;;;;;5035929;28;20029;-85
2022/01/23 13:09:24;;;;;;;11.98;6.95;;;7.50;99.90;;;;;;5034768;28;20030;-86
2022/01/23 13:12:13;;;;;;;13.80;7.20;;;7.60;99.90;;;;;;5035196;28;20022;-84
2022/01/23 13:17:45;;;;;;;12.57;7.47;;;7.70;99.90;;;;;;5015780;28;20029;-89
2022/01/23 13:29:51;;;;;;;16.65;8.02;;;7.60;99.90;;;;;;5032934;28;20112;-85
2022/01/23 13:34:24;;;;;;;17.38;7.32;;;7.80;99.90;;;;;;5033089;28;20756;-86
2022/01/23 13:37:02;;;;;;;12.20;6.82;;;7.80;99.90;;;;;;5031067;28;20021;-86
2022/01/23 13:39:56;;;;;;;11.43;6.78;;;7.80;99.90;;;;;;5029743;28;20052;-85
2022/01/23 13:59:38;;;;;;;14.57;7.70;;;7.60;99.90;;;;;;5034870;28;20032;-85
2022/01/23 14:02:25;;;;;;;12.38;6.80;;;7.70;99.90;;;;;;5031683;28;20029;-86
2022/01/23 14:05:06;;;;;;;11.43;6.68;;;7.80;99.90;;;;;;5049354;28;20285;-83
2022/01/23 14:07:32;;;;;;;14.35;8.30;;;7.60;99.90;;;;;;5031543;28;20077;-84
2022/01/23 14:10:11;;;;;;;15.10;7.93;;;7.40;99.90;;;;;;5031114;28;20026;-85
2022/01/23 14:12:37;;;;;;;15.00;8.35;;;7.30;99.90;;;;;;5046053;28;20022;-81
2022/01/23 14:15:08;;;;;;;15.00;8.40;;;7.30;99.90;;;;;;5047177;28;20103;-82
2022/01/23 14:17:39;;;;;;;13.70;7.38;;;7.30;99.90;;;;;;5033899;28;20183;-84
2022/01/23 14:20:17;;;;;;;13.82;7.82;;;7.50;99.90;;;;;;5029413;28;20025;-84
2022/01/23 14:22:45;;;;;;;13.00;7.57;;;7.50;99.90;;;;;;5027077;28;20061;-85
2022/01/23 14:25:24;;;;;;;14.32;7.40;;;7.50;99.90;;;;;;5031216;28;20761;-80
2022/01/23 14:28:13;;;;;;;15.15;8.25;;;7.40;99.90;;;;;;5042068;28;20057;-82
2022/01/23 14:30:47;;;;;;;16.30;8.38;;;7.50;99.90;;;;;;5033216;28;20022;-85
2022/01/23 14:33:19;;;;;;;15.20;7.75;;;8.00;99.90;;;;;;5029085;28;20491;-85
2022/01/23 14:35:45;;;;;;;13.07;7.47;;;7.30;99.90;;;;;;5037591;28;20056;-84
2022/01/23 14:38:20;;;;;;;14.38;7.88;;;7.30;99.90;;;;;;5036637;28;20034;-81
2022/01/23 14:41:00;;;;;;;15.32;8.30;;;7.20;99.90;;;;;;5038345;28;20030;-83
2022/01/23 14:43:36;;;;;;;13.70;8.07;;;7.20;99.90;;;;;;5033217;28;20028;-83
2022/01/23 14:46:04;;;;;;;13.90;7.80;;;7.70;99.90;;;;;;5026325;28;20024;-83
2022/01/23 14:48:31;;;;;;;14.90;7.60;;;7.70;99.90;;;;;;5028008;28;20116;-83
2022/01/23 14:51:02;;;;;;;15.90;8.48;;;7.20;99.90;;;;;;5030695;28;20051;-84
2022/01/23 14:53:28;;;;;;;15.93;8.20;;;7.20;99.90;;;;;;5049490;28;20056;-81
2022/01/23 14:55:58;;;;;;;15.82;8.63;;;8.20;99.90;;;;;;5026548;28;20036;-80
2022/01/23 14:58:24;;;;;;;15.05;8.18;;;7.40;99.90;;;;;;5029490;28;20038;-82
2022/01/23 15:00:53;;;;;;;15.63;8.43;;;7.10;99.90;;;;;;5027164;28;20049;-80
2022/01/23 15:03:20;;;;;;;14.20;7.72;;;7.10;99.90;;;;;;5046343;28;20033;-86
2022/01/23 15:05:46;;;;;;;14.07;8.10;;;7.10;99.90;;;;;;5029932;28;20120;-84
2022/01/23 15:08:13;;;;;;;16.30;8.45;;;7.40;99.90;;;;;;5034765;28;20060;-84
2022/01/23 15:10:42;;;;;;;15.05;7.65;;;7.20;99.90;;;;;;5033622;28;20026;-83
2022/01/23 15:13:09;;;;;;;13.57;7.57;;;7.30;99.90;;;;;;5040190;28;20033;-83
2022/01/23 15:15:35;;;;;;;14.13;7.10;;;7.30;99.90;;;;;;5040361;28;20017;-85
2022/01/23 15:18:02;;;;;;;12.43;7.10;;;7.40;99.90;;;;;;5041106;28;20052;-84
2022/01/23 15:20:28;;;;;;;13.80;7.07;;;7.40;99.90;;;;;;5046062;28;20029;-84
2022/01/23 15:22:54;;;;;;;15.27;8.18;;;7.30;99.90;;;;;;5057797;28;20052;-83
2022/01/23 15:25:19;;;;;;;13.50;7.72;;;8.30;99.90;;;;;;5054212;28;20029;-84
2022/01/23 15:27:48;;;;;;;14.13;7.25;;;7.20;99.90;;;;;;5049038;22;20068;-85
2022/01/23 15:30:16;;;;;;;12.75;7.40;;;7.30;99.90;;;;;;5056872;28;20119;-86
2022/01/23 15:32:51;;;;;;;13.80;7.43;;;7.30;99.90;;;;;;5059989;28;20028;-83
2022/01/23 15:35:26;;;;;;;11.95;7.65;;;7.20;99.90;;;;;;5043440;28;20160;-82
2022/01/23 15:37:53;;;;;;;13.15;6.78;;;7.30;99.90;;;;;;5020707;28;20037;-86
2022/01/23 15:40:20;;;;;;;12.98;7.40;;;7.10;99.90;;;;;;5039000;28;20026;-85
2022/01/23 15:42:49;;;;;;;13.05;7.28;;;7.10;99.90;;;;;;5037243;28;20026;-86
2022/01/23 15:45:15;;;;;;;13.23;7.13;;;7.90;99.90;;;;;;5048544;28;20033;-84
2022/01/23 15:47:41;;;;;;;12.82;7.28;;;7.20;99.90;;;;;;5033771;28;20052;-85
2022/01/23 15:50:12;;;;;;;15.20;7.85;;;7.30;99.90;;;;;;5037786;28;20030;-85
2022/01/23 15:52:38;;;;;;;13.27;7.35;;;6.90;99.90;;;;;;5044011;28;20039;-84
2022/01/23 15:55:06;;;;;;;11.77;6.88;;;6.90;99.90;;;;;;5030808;28;20037;-87
2022/01/23 15:57:31;;;;;;;13.80;7.75;;;6.90;99.90;;;;;;5034131;28;20451;-81
2022/01/23 15:59:57;;;;;;;13.18;7.60;;;6.90;99.90;;;;;;5032769;28;20033;-83
2022/01/23 16:02:23;;;;;;;17.70;6.80;;;6.90;99.90;;;;;;5037893;28;20033;-83
2022/01/23 16:04:48;;;;;;;12.27;6.60;;;6.90;99.90;;;;;;5040369;28;20033;-83
2022/01/23 16:07:18;;;;;;;13.63;7.07;;;6.90;99.90;;;;;;5031156;28;20060;-84